Strona główna
METAR-TAF:

METAR-TAF

Lotnisko :

Metcalf Field

Toledo, Ohio, Stany Zjednoczone

Szerokość geograficzna: 41-33-47N, Długość geograficzna: 083-28-35W, wysokość: 189 m

Aktualna obserwacja pogody

Raport powstał 1 godzina i 1 minut temu, godzina 06:53 UTC
Wiatr 4 kt od zachodnio-północny zachód
Temperatura -10°C
Wilgotność 85%
Ciśnienie 1030 hPa
Widzialność: 16.1 km
bezchmurnie

METAR: KTDZ 200653Z AUTO 29004KT 10SM CLR M10/M12 A3041 RMK AO2 SLP310 T11001122

czas: 02:54 (07:54 UTC)


TAF: brakujący

Obserwacja i prognoza pogody dla ponad 4000 lotnisk (raport METAR i TAF).

Dostępne stacje oznaczono żółtymi i czerwonymi punktami na mapie.

Najedź kursorem aby zobaczyć nazwę stacji.

Kliknij aby zobaczyć obserwacje i prognozy pogody.

Aby zmienić mapę: kliknij na zielony przycisk z czarnym krzyżykiem, aby powiększyć; na zielony przycisk z myślnikiem, aby pomniejszyć; na zielone strzałki, aby przejść do map sąsiednich.


METAR-TAF: